createdAt,value
2019-05-01T00:00:24.700Z,49.35
2019-05-01T00:03:14.903Z,51.48
2019-05-01T00:05:46.907Z,48.63
2019-05-01T00:08:15.726Z,52.98
2019-05-01T00:10:44.619Z,52.00
2019-05-01T00:13:13.469Z,52.17
2019-05-01T00:15:43.063Z,55.08
2019-05-01T00:18:11.825Z,56.45
2019-05-01T00:20:40.860Z,56.00
2019-05-01T00:23:09.552Z,56.50
2019-05-01T00:25:38.638Z,55.73
2019-05-01T00:28:10.709Z,53.83
2019-05-01T00:30:40.035Z,55.55
2019-05-01T00:33:08.993Z,52.20
2019-05-01T00:35:37.837Z,56.13
2019-05-01T00:38:06.611Z,58.95
2019-05-01T00:40:35.308Z,64.42
2019-05-01T00:43:04.369Z,62.43
2019-05-01T00:45:33.759Z,69.27
2019-05-01T00:48:03.052Z,66.47
2019-05-01T00:50:32.038Z,64.75
2019-05-01T00:53:01.046Z,58.85
2019-05-01T00:55:51.888Z,55.63
2019-05-01T00:58:37.831Z,55.08
2019-05-01T01:01:24.442Z,60.12
2019-05-01T01:03:53.378Z,57.48
2019-05-01T01:06:22.177Z,58.40
2019-05-01T01:08:51.540Z,56.80
2019-05-01T01:11:20.344Z,57.13
2019-05-01T01:13:49.848Z,57.78
2019-05-01T01:16:18.573Z,55.75
2019-05-01T01:18:47.598Z,55.65
2019-05-01T01:21:18.129Z,61.08
2019-05-01T01:23:47.527Z,60.15
2019-05-01T01:26:18.804Z,60.43
2019-05-01T01:28:50.240Z,61.37
2019-05-01T01:31:19.015Z,65.62
2019-05-01T01:33:48.006Z,65.45
2019-05-01T01:36:17.097Z,63.55
2019-05-01T01:38:45.858Z,64.87
2019-05-01T01:41:14.984Z,63.50
2019-05-01T01:43:54.524Z,67.62
2019-05-01T01:46:28.330Z,67.17
2019-05-01T01:48:57.549Z,70.50
2019-05-01T01:51:26.623Z,71.47
2019-05-01T01:53:55.434Z,76.60
2019-05-01T01:56:27.941Z,75.03
2019-05-01T01:58:57.070Z,81.85
2019-05-01T02:01:46.254Z,78.40
2019-05-01T02:04:33.924Z,81.02
2019-05-01T02:07:03.017Z,81.57
2019-05-01T02:09:31.777Z,80.85
2019-05-01T02:12:00.878Z,86.70
2019-05-01T02:14:31.064Z,81.30
2019-05-01T02:17:00.124Z,82.30
2019-05-01T02:19:29.145Z,88.62
2019-05-01T02:21:57.907Z,87.62
2019-05-01T02:24:26.572Z,83.33
2019-05-01T02:26:57.607Z,87.90
2019-05-01T02:29:35.925Z,85.28
2019-05-01T02:32:04.784Z,84.32
2019-05-01T02:34:36.104Z,91.32
2019-05-01T02:37:05.287Z,94.03
2019-05-01T02:39:35.535Z,96.10
2019-05-01T02:42:06.292Z,97.40
2019-05-01T02:44:41.961Z,104.95
2019-05-01T02:47:13.711Z,110.32
2019-05-01T02:49:53.078Z,109.22
2019-05-01T02:52:25.128Z,108.30
2019-05-01T02:57:24.429Z,107.72
2019-05-01T02:59:55.753Z,108.92
2019-05-01T03:02:27.012Z,115.55
2019-05-01T03:04:57.822Z,105.27
2019-05-01T03:07:31.474Z,108.60
2019-05-01T03:10:01.814Z,109.40
2019-05-01T03:12:33.267Z,107.85
2019-05-01T03:15:04.534Z,107.45
2019-05-01T03:17:55.347Z,116.15
2019-05-01T03:20:34.578Z,113.65
2019-05-01T03:23:16.165Z,113.83
2019-05-01T03:25:45.354Z,116.10
2019-05-01T03:28:14.690Z,114.37
2019-05-01T03:30:44.160Z,106.00
2019-05-01T03:33:13.624Z,112.15
2019-05-01T03:35:43.106Z,105.05
2019-05-01T03:38:12.297Z,103.55
2019-05-01T03:40:42.023Z,104.92
2019-05-01T03:43:11.223Z,97.78
2019-05-01T03:45:40.925Z,102.67
2019-05-01T03:48:09.891Z,100.62
2019-05-01T03:50:39.888Z,102.32
2019-05-01T03:53:08.693Z,100.72
2019-05-01T03:55:38.235Z,103.17
2019-05-01T03:58:07.096Z,97.10
2019-05-01T04:01:05.618Z,99.97
2019-05-01T04:03:38.363Z,91.72
2019-05-01T04:06:07.612Z,96.00
2019-05-01T04:08:37.475Z,100.25
2019-05-01T04:11:06.564Z,102.70
2019-05-01T04:13:35.480Z,107.32
2019-05-01T04:16:05.033Z,105.25
2019-05-01T04:18:34.990Z,99.35
2019-05-01T04:21:04.485Z,99.97
2019-05-01T04:23:33.773Z,103.32
2019-05-01T04:26:03.292Z,97.65
2019-05-01T04:28:51.435Z,102.07
2019-05-01T04:31:32.291Z,97.57
2019-05-01T04:34:04.559Z,95.65
2019-05-01T04:36:37.530Z,97.78
2019-05-01T04:39:07.974Z,101.25
2019-05-01T04:41:37.278Z,100.27
2019-05-01T04:44:06.463Z,97.35
2019-05-01T04:46:36.365Z,91.80
2019-05-01T04:49:05.594Z,96.78
2019-05-01T04:51:35.239Z,95.07
2019-05-01T04:54:04.181Z,93.90
2019-05-01T04:56:33.469Z,86.65
2019-05-01T04:59:03.971Z,91.05
2019-05-01T05:01:56.839Z,89.20
2019-05-01T05:04:24.812Z,90.65
2019-05-01T05:06:54.630Z,89.83
2019-05-01T05:09:46.995Z,96.17
2019-05-01T05:12:48.784Z,95.90
2019-05-01T05:15:37.571Z,97.57
2019-05-01T05:18:06.618Z,94.28
2019-05-01T05:20:35.904Z,94.07
2019-05-01T05:23:06.782Z,92.35
2019-05-01T05:25:35.844Z,93.07
2019-05-01T05:28:05.340Z,88.40
2019-05-01T05:30:35.254Z,97.08
2019-05-01T05:33:17.841Z,93.10
2019-05-01T05:35:39.805Z,81.92
2019-05-01T05:38:30.442Z,75.03
2019-05-01T05:41:01.748Z,79.50
2019-05-01T05:43:30.638Z,84.75
2019-05-01T05:46:00.654Z,81.65
2019-05-01T05:48:29.342Z,80.80
2019-05-01T05:51:22.037Z,80.03
2019-05-01T05:53:55.088Z,74.30
2019-05-01T05:56:32.034Z,74.58
2019-05-01T05:59:07.996Z,74.20
2019-05-01T06:01:46.689Z,77.97
2019-05-01T06:04:36.638Z,75.80
2019-05-01T06:07:17.933Z,80.35
2019-05-01T06:09:57.280Z,68.00
2019-05-01T06:12:33.480Z,68.62
2019-05-01T06:15:22.412Z,68.22
2019-05-01T06:17:59.218Z,71.95
2019-05-01T06:20:51.516Z,71.95
2019-05-01T06:23:37.445Z,67.58
2019-05-01T06:26:26.369Z,69.30
2019-05-01T06:29:00.213Z,68.52
2019-05-01T06:31:26.446Z,62.17
2019-05-01T06:33:56.017Z,70.55
2019-05-01T06:36:24.880Z,65.55
2019-05-01T06:38:55.509Z,62.40
2019-05-01T06:41:28.733Z,62.30
2019-05-01T06:44:09.170Z,64.47
2019-05-01T06:46:47.875Z,65.70
2019-05-01T06:49:41.307Z,65.30
2019-05-01T06:52:11.028Z,66.97
2019-05-01T06:54:40.285Z,63.58
2019-05-01T06:57:09.551Z,62.60
2019-05-01T06:59:40.337Z,67.60
2019-05-01T07:02:12.189Z,70.52
2019-05-01T07:04:42.737Z,66.65
2019-05-01T07:07:24.961Z,69.97
2019-05-01T07:09:49.352Z,64.40
2019-05-01T07:12:23.983Z,66.05
2019-05-01T07:14:52.163Z,67.35
2019-05-01T07:17:21.728Z,68.83
2019-05-01T07:20:00.816Z,69.40
2019-05-01T07:22:29.951Z,60.50
2019-05-01T07:25:03.799Z,62.08
2019-05-01T07:27:29.948Z,56.70
2019-05-01T07:30:02.835Z,63.58
2019-05-01T07:32:31.658Z,53.33
2019-05-01T07:35:02.003Z,58.38
2019-05-01T07:37:31.383Z,58.00
2019-05-01T07:40:00.492Z,58.63
2019-05-01T07:42:30.921Z,52.90
2019-05-01T07:45:11.339Z,53.98
2019-05-01T07:47:41.973Z,53.52
2019-05-01T07:50:11.741Z,52.20
2019-05-01T07:52:41.484Z,55.15
2019-05-01T07:55:13.089Z,53.55
2019-05-01T07:57:41.484Z,52.73
2019-05-01T08:00:21.198Z,49.00
2019-05-01T08:02:49.902Z,53.80
2019-05-01T08:05:18.584Z,51.80
2019-05-01T08:07:49.461Z,55.70
2019-05-01T08:10:21.029Z,51.18
2019-05-01T08:12:48.711Z,54.90
2019-05-01T08:15:17.454Z,50.00
2019-05-01T08:17:48.860Z,50.67
2019-05-01T08:20:30.162Z,53.73
2019-05-01T08:22:58.854Z,53.80
2019-05-01T08:25:28.758Z,52.83
2019-05-01T08:28:07.720Z,50.23
2019-05-01T08:30:52.835Z,51.63
2019-05-01T08:33:40.334Z,50.73
2019-05-01T08:36:11.715Z,55.15
2019-05-01T08:38:40.553Z,53.50
2019-05-01T08:41:09.668Z,49.50
2019-05-01T08:43:39.010Z,52.17
2019-05-01T08:46:26.731Z,51.23
2019-05-01T08:49:01.680Z,53.38
2019-05-01T08:51:34.854Z,52.33
2019-05-01T08:54:01.318Z,50.15
2019-05-01T08:56:30.023Z,52.03
2019-05-01T08:58:58.710Z,53.48
2019-05-01T09:01:27.766Z,51.02
2019-05-01T09:03:56.798Z,58.48
2019-05-01T09:06:34.492Z,55.33
2019-05-01T09:08:56.880Z,53.77
2019-05-01T09:11:25.992Z,55.63
2019-05-01T09:13:58.791Z,51.15
2019-05-01T09:16:28.413Z,52.33
2019-05-01T09:18:56.142Z,53.58
2019-05-01T09:21:24.838Z,50.40
2019-05-01T09:23:53.534Z,51.18
2019-05-01T09:26:45.327Z,47.88
2019-05-01T09:29:17.596Z,49.48
2019-05-01T09:31:47.182Z,52.43
2019-05-01T09:34:19.130Z,49.60
2019-05-01T09:36:46.707Z,52.65
2019-05-01T09:39:16.736Z,50.25
2019-05-01T09:41:47.454Z,53.08
2019-05-01T09:44:16.179Z,53.83
2019-05-01T09:46:45.102Z,47.78
2019-05-01T09:49:17.787Z,52.73
2019-05-01T09:54:51.977Z,54.83
2019-05-01T09:57:20.675Z,54.83
2019-05-01T09:59:49.355Z,52.45
2019-05-01T10:02:18.119Z,53.85
2019-05-01T10:04:49.026Z,53.87
2019-05-01T10:07:18.080Z,57.58
2019-05-01T10:09:51.696Z,57.98
2019-05-01T10:12:17.639Z,57.98
2019-05-01T10:14:46.821Z,57.65
2019-05-01T10:17:15.877Z,56.75
2019-05-01T10:19:44.566Z,57.50
2019-05-01T10:22:13.558Z,55.70
2019-05-01T10:24:42.260Z,54.30
2019-05-01T10:27:16.955Z,55.38
2019-05-01T10:30:03.103Z,55.50
2019-05-01T10:32:57.877Z,54.53
2019-05-01T10:35:43.499Z,55.95
2019-05-01T10:38:12.849Z,59.83
2019-05-01T10:40:43.361Z,58.50
2019-05-01T10:43:12.140Z,54.23
2019-05-01T10:45:40.840Z,60.50
2019-05-01T10:48:10.062Z,57.60
2019-05-01T10:50:38.755Z,58.68
2019-05-01T10:53:07.445Z,57.08
2019-05-01T10:55:36.129Z,58.38
2019-05-01T10:58:05.260Z,59.10
2019-05-01T11:00:36.338Z,66.05
2019-05-01T11:03:05.029Z,66.45
2019-05-01T11:05:34.129Z,61.92
2019-05-01T11:08:02.894Z,64.90
2019-05-01T11:10:31.619Z,65.08
2019-05-01T11:13:00.306Z,71.22
2019-05-01T11:15:29.007Z,68.95
2019-05-01T11:17:59.016Z,71.77
2019-05-01T11:20:27.917Z,65.00
2019-05-01T11:22:59.259Z,64.77
2019-05-01T11:25:29.338Z,65.75
2019-05-01T11:27:58.050Z,66.57
2019-05-01T11:30:27.004Z,61.92
2019-05-01T11:33:01.897Z,63.35
2019-05-01T11:35:49.649Z,63.33
2019-05-01T11:38:28.543Z,89.32
2019-05-01T11:41:03.709Z,61.80
2019-05-01T11:43:32.391Z,59.45
2019-05-01T11:46:01.089Z,61.18
2019-05-01T11:48:31.910Z,61.37
2019-05-01T11:51:00.216Z,58.73
2019-05-01T11:53:29.140Z,57.38
2019-05-01T11:55:57.861Z,61.92
2019-05-01T11:58:27.211Z,62.83
2019-05-01T12:00:57.982Z,64.53
2019-05-01T12:03:28.132Z,69.15
2019-05-01T12:05:57.677Z,65.67
2019-05-01T12:08:26.665Z,66.42
2019-05-01T12:10:55.753Z,67.32
2019-05-01T12:13:24.907Z,61.35
2019-05-01T12:16:00.891Z,64.40
2019-05-01T12:18:29.611Z,65.28
2019-05-01T12:20:58.319Z,64.53
2019-05-01T12:23:27.589Z,66.80
2019-05-01T12:25:56.295Z,68.62
2019-05-01T12:28:24.997Z,70.25
2019-05-01T12:30:54.050Z,67.50
2019-05-01T12:33:25.671Z,68.28
2019-05-01T12:35:56.061Z,65.78
2019-05-01T12:38:24.753Z,61.53
2019-05-01T12:41:11.222Z,69.77
2019-05-01T12:43:40.462Z,64.40
2019-05-01T12:46:11.144Z,66.25
2019-05-01T12:48:40.550Z,66.28
2019-05-01T12:51:09.843Z,63.50
2019-05-01T12:53:53.780Z,65.55
2019-05-01T12:56:37.569Z,63.87
2019-05-01T12:59:06.341Z,63.55
2019-05-01T13:01:35.296Z,62.75
2019-05-01T13:04:04.184Z,58.42
2019-05-01T13:06:32.908Z,58.10
2019-05-01T13:09:01.847Z,58.50
2019-05-01T13:11:30.798Z,61.70
2019-05-01T13:14:00.274Z,60.17
2019-05-01T13:16:28.966Z,59.58
2019-05-01T13:18:57.735Z,57.25
2019-05-01T13:21:29.086Z,50.67
2019-05-01T13:23:57.776Z,54.23
2019-05-01T13:26:35.706Z,55.17
2019-05-01T13:29:09.963Z,61.80
2019-05-01T13:31:43.715Z,56.90
2019-05-01T13:34:12.649Z,55.40
2019-05-01T13:36:41.695Z,60.75
2019-05-01T13:39:14.161Z,60.15
2019-05-01T13:41:42.942Z,57.55
2019-05-01T13:44:14.234Z,59.63
2019-05-01T13:46:43.158Z,68.45
2019-05-01T13:49:13.314Z,55.43
2019-05-01T13:51:42.329Z,53.28
2019-05-01T13:54:11.405Z,56.58
2019-05-01T13:56:40.332Z,61.80
2019-05-01T13:59:13.446Z,59.42
2019-05-01T14:01:42.287Z,55.83
2019-05-01T14:04:15.737Z,54.90
2019-05-01T14:06:44.759Z,57.98
2019-05-01T14:09:16.352Z,63.25
2019-05-01T14:11:45.457Z,60.20
2019-05-01T14:14:15.762Z,54.45
2019-05-01T14:16:44.424Z,58.80
2019-05-01T14:19:13.165Z,52.15
2019-05-01T14:21:50.849Z,54.60
2019-05-01T14:24:29.533Z,51.42
2019-05-01T14:26:59.542Z,52.60
2019-05-01T14:29:28.211Z,53.78
2019-05-01T14:32:00.100Z,57.23
2019-05-01T14:34:28.770Z,62.40
2019-05-01T14:36:57.868Z,50.33
2019-05-01T14:39:26.858Z,52.50
2019-05-01T14:41:55.633Z,53.50
2019-05-01T14:44:36.233Z,53.45
2019-05-01T14:46:54.723Z,52.55
2019-05-01T14:49:23.399Z,49.70
2019-05-01T14:51:52.172Z,47.13
2019-05-01T14:54:21.527Z,42.50
2019-05-01T14:56:50.521Z,46.10
2019-05-01T14:59:19.209Z,53.63
2019-05-01T15:01:47.934Z,47.33
2019-05-01T15:04:16.625Z,45.52
2019-05-01T15:06:45.577Z,46.90
2019-05-01T15:09:14.273Z,47.30
2019-05-01T15:11:43.951Z,49.70
2019-05-01T15:14:28.558Z,47.48
2019-05-01T15:17:54.197Z,48.55
2019-05-01T15:20:47.473Z,47.48
2019-05-01T15:23:16.809Z,48.20
2019-05-01T15:25:45.498Z,47.60
2019-05-01T15:28:14.219Z,48.63
2019-05-01T15:30:42.894Z,46.18
2019-05-01T15:33:11.920Z,45.65
2019-05-01T15:35:40.953Z,49.42
2019-05-01T15:38:09.945Z,49.67
2019-05-01T15:40:45.010Z,45.25
2019-05-01T15:43:25.877Z,50.20
2019-05-01T15:45:54.556Z,50.78
2019-05-01T15:48:23.254Z,50.60
2019-05-01T15:50:51.926Z,51.55
2019-05-01T15:53:21.008Z,56.42
2019-05-01T15:55:49.842Z,57.38
2019-05-01T15:58:18.544Z,51.42
2019-05-01T16:00:48.046Z,46.77
2019-05-01T16:03:16.742Z,47.13
2019-05-01T16:05:45.665Z,48.23
2019-05-01T16:08:15.038Z,48.48
2019-05-01T16:10:51.507Z,46.95
2019-05-01T16:13:21.063Z,43.28
2019-05-01T16:15:49.743Z,43.35
2019-05-01T16:18:18.447Z,46.68
2019-05-01T16:20:47.498Z,49.00
2019-05-01T16:23:16.594Z,47.70
2019-05-01T16:25:45.283Z,46.10
2019-05-01T16:28:14.231Z,46.75
2019-05-01T16:30:45.026Z,45.00
2019-05-01T16:33:13.738Z,48.92
2019-05-01T16:35:45.479Z,47.62
2019-05-01T16:41:06.577Z,46.53
2019-05-01T16:43:35.978Z,48.65
2019-05-01T16:46:04.835Z,46.88
2019-05-01T16:48:33.610Z,46.55
2019-05-01T16:51:02.718Z,45.75
2019-05-01T16:53:31.444Z,45.45
2019-05-01T16:56:00.122Z,42.35
2019-05-01T16:58:29.140Z,43.68
2019-05-01T17:01:30.185Z,46.45
2019-05-01T17:04:30.022Z,46.33
2019-05-01T17:07:24.467Z,43.73
2019-05-01T17:10:09.456Z,47.93
2019-05-01T17:12:52.389Z,41.68
2019-05-01T17:15:27.907Z,45.48
2019-05-01T17:17:56.692Z,42.80
2019-05-01T17:20:26.351Z,47.95
2019-05-01T17:22:55.335Z,46.00
2019-05-01T17:25:24.218Z,41.10
2019-05-01T17:27:53.148Z,40.12
2019-05-01T17:30:37.318Z,40.45
2019-05-01T17:33:06.147Z,43.63
2019-05-01T17:35:37.028Z,44.73
2019-05-01T17:38:05.749Z,44.95
2019-05-01T17:40:34.519Z,45.75
2019-05-01T17:43:03.368Z,42.60
2019-05-01T17:45:34.796Z,42.00
2019-05-01T17:48:03.238Z,45.60
2019-05-01T17:50:31.925Z,43.20
2019-05-01T17:53:01.007Z,43.15
2019-05-01T17:55:29.737Z,45.40
2019-05-01T17:57:58.420Z,45.35
2019-05-01T18:00:37.427Z,45.35
2019-05-01T18:03:14.486Z,46.50
2019-05-01T18:06:14.425Z,43.40
2019-05-01T18:08:43.470Z,44.55
2019-05-01T18:11:14.313Z,42.67
2019-05-01T18:13:42.920Z,44.83
2019-05-01T18:16:11.673Z,42.43
2019-05-01T18:18:40.361Z,41.77
2019-05-01T18:21:10.835Z,45.38
2019-05-01T18:23:57.688Z,45.55
2019-05-01T18:26:46.235Z,46.73
2019-05-01T18:29:19.943Z,44.90
2019-05-01T18:31:48.630Z,41.55
2019-05-01T18:34:17.394Z,45.73
2019-05-01T18:36:54.929Z,44.80
2019-05-01T18:39:28.782Z,43.40
2019-05-01T18:42:02.718Z,43.23
2019-05-01T18:44:31.852Z,41.88
2019-05-01T18:47:00.667Z,45.85
2019-05-01T18:49:29.358Z,45.55
2019-05-01T18:51:58.110Z,46.85
2019-05-01T18:54:30.366Z,48.52
2019-05-01T18:56:57.449Z,44.88
2019-05-01T18:59:26.220Z,50.43
2019-05-01T19:01:54.907Z,44.80
2019-05-01T19:04:24.689Z,45.90
2019-05-01T19:06:53.647Z,46.53
2019-05-01T19:09:29.752Z,46.18
2019-05-01T19:11:53.515Z,48.48
2019-05-01T19:14:23.690Z,44.30
2019-05-01T19:16:53.694Z,48.05
2019-05-01T19:19:22.593Z,45.75
2019-05-01T19:21:51.311Z,45.55
2019-05-01T19:24:20.071Z,47.50
2019-05-01T19:26:48.854Z,45.28
2019-05-01T19:29:17.942Z,48.63
2019-05-01T19:31:47.150Z,48.45
2019-05-01T19:34:16.150Z,48.83
2019-05-01T19:36:46.288Z,46.70
2019-05-01T19:39:15.345Z,50.78
2019-05-01T19:41:49.124Z,48.40
2019-05-01T19:44:18.855Z,52.05
2019-05-01T19:47:37.221Z,51.95
2019-05-01T19:50:09.473Z,50.15
2019-05-01T19:52:39.928Z,52.15
2019-05-01T19:55:09.108Z,59.03
2019-05-01T19:57:38.520Z,54.27
2019-05-01T20:00:09.142Z,51.13
2019-05-01T20:02:37.929Z,56.18
2019-05-01T20:05:10.812Z,52.08
2019-05-01T20:07:37.990Z,58.33
2019-05-01T20:10:07.961Z,54.90
2019-05-01T20:12:36.699Z,51.53
2019-05-01T20:15:05.910Z,53.92
2019-05-01T20:17:34.832Z,55.25
2019-05-01T20:20:04.203Z,54.98
2019-05-01T20:22:33.558Z,55.52
2019-05-01T20:25:02.580Z,57.00
2019-05-01T20:27:31.316Z,56.08
2019-05-01T20:30:00.022Z,52.78
2019-05-01T20:32:28.710Z,54.30
2019-05-01T20:34:59.451Z,53.00
2019-05-01T20:37:28.454Z,57.03
2019-05-01T20:40:10.116Z,53.92
2019-05-01T20:42:27.550Z,56.23
2019-05-01T20:45:04.335Z,54.42
2019-05-01T20:47:35.044Z,57.00
2019-05-01T20:49:57.719Z,57.13
2019-05-01T20:52:26.428Z,54.48
2019-05-01T20:54:55.132Z,55.17
2019-05-01T20:57:31.219Z,55.05
2019-05-01T20:59:59.935Z,54.48
2019-05-01T21:02:28.954Z,54.03
2019-05-01T21:05:25.139Z,55.83
2019-05-01T21:08:19.527Z,52.80
2019-05-01T21:10:52.465Z,55.50
2019-05-01T21:13:23.275Z,55.92
2019-05-01T21:15:56.260Z,53.42
2019-05-01T21:18:25.970Z,54.95
2019-05-01T21:20:54.171Z,55.35
2019-05-01T21:23:23.397Z,55.03
2019-05-01T21:25:53.827Z,52.45
2019-05-01T21:28:24.017Z,54.67
2019-05-01T21:30:54.378Z,54.55
2019-05-01T21:33:23.852Z,58.28
2019-05-01T21:35:53.388Z,57.83
2019-05-01T21:38:22.089Z,52.48
2019-05-01T21:40:51.045Z,56.65
2019-05-01T21:43:19.751Z,55.63
2019-05-01T21:45:48.706Z,56.25
2019-05-01T21:48:17.423Z,53.17
2019-05-01T21:50:46.360Z,52.67
2019-05-01T21:53:15.045Z,52.95
2019-05-01T21:55:44.002Z,51.95
2019-05-01T21:58:15.183Z,57.15
2019-05-01T22:00:43.535Z,52.33
2019-05-01T22:03:12.393Z,53.15
2019-05-01T22:05:41.362Z,54.30
2019-05-01T22:08:10.056Z,49.98
2019-05-01T22:10:51.449Z,55.88
2019-05-01T22:13:09.528Z,53.48
2019-05-01T22:15:47.265Z,54.20
2019-05-01T22:18:27.159Z,52.75
2019-05-01T22:21:08.920Z,53.33
2019-05-01T22:24:04.940Z,53.15
2019-05-01T22:26:37.834Z,54.88
2019-05-01T22:29:08.669Z,56.42
2019-05-01T22:31:57.461Z,56.77
2019-05-01T22:35:01.087Z,57.55
2019-05-01T22:37:30.043Z,56.60
2019-05-01T22:40:05.874Z,53.75
2019-05-01T22:42:34.708Z,53.28
2019-05-01T22:45:03.784Z,51.48
2019-05-01T22:47:32.461Z,49.83
2019-05-01T22:50:01.263Z,53.13
2019-05-01T22:55:35.988Z,55.43
2019-05-01T22:58:05.093Z,51.08
2019-05-01T23:00:45.253Z,55.30
2019-05-01T23:03:20.459Z,56.55
2019-05-01T23:05:49.142Z,52.55
2019-05-01T23:08:18.377Z,54.80
2019-05-01T23:10:48.546Z,54.63
2019-05-01T23:13:17.368Z,52.00
2019-05-01T23:15:46.542Z,47.65
2019-05-01T23:18:17.258Z,54.05
2019-05-01T23:20:45.896Z,50.88
2019-05-01T23:23:14.581Z,53.17
2019-05-01T23:25:43.265Z,50.08
2019-05-01T23:28:11.944Z,57.33
2019-05-01T23:30:40.921Z,50.35
2019-05-01T23:33:09.601Z,54.27
2019-05-01T23:35:38.400Z,54.23
2019-05-01T23:38:07.140Z,54.45
2019-05-01T23:40:35.970Z,52.90
2019-05-01T23:43:04.941Z,57.85
2019-05-01T23:45:33.612Z,51.53
2019-05-01T23:48:02.311Z,56.98
2019-05-01T23:50:31.026Z,55.28
2019-05-01T23:52:59.683Z,57.85
2019-05-01T23:55:28.587Z,58.75
2019-05-01T23:57:57.533Z,57.13
